sensor_id;sensor_type;location;lat;lon;timestamp;pressure;altitude;pressure_sealevel;temperature;humidity
14818;BME280;7500;57.698;11.986;2023-03-05T00:01:37;101285.31;;;2.91;100.00
14818;BME280;7500;57.698;11.986;2023-03-05T00:04:08;101292.28;;;2.89;100.00
14818;BME280;7500;57.698;11.986;2023-03-05T00:06:37;101294.03;;;2.90;100.00
14818;BME280;7500;57.698;11.986;2023-03-05T00:09:04;101290.53;;;2.91;100.00
14818;BME280;7500;57.698;11.986;2023-03-05T00:11:32;101292.25;;;2.90;100.00
14818;BME280;7500;57.698;11.986;2023-03-05T00:14:01;101287.06;;;2.89;100.00
14818;BME280;7500;57.698;11.986;2023-03-05T00:16:29;101283.63;;;2.87;100.00
14818;BME280;7500;57.698;11.986;2023-03-05T00:18:59;101290.59;;;2.85;100.00
14818;BME280;7500;57.698;11.986;2023-03-05T00:21:30;101259.56;;;2.64;100.00
14818;BME280;7500;57.698;11.986;2023-03-05T00:23:58;101281.13;;;2.78;100.00
14818;BME280;7500;57.698;11.986;2023-03-05T00:26:27;101270.84;;;2.66;100.00
14818;BME280;7500;57.698;11.986;2023-03-05T00:28:56;101274.31;;;2.68;100.00
14818;BME280;7500;57.698;11.986;2023-03-05T00:31:25;101276.94;;;2.65;100.00
14818;BME280;7500;57.698;11.986;2023-03-05T00:33:56;101271.69;;;2.66;100.00
14818;BME280;7500;57.698;11.986;2023-03-05T00:36:23;101273.44;;;2.66;100.00
14818;BME280;7500;57.698;11.986;2023-03-05T00:38:52;101269.09;;;2.66;100.00
14818;BME280;7500;57.698;11.986;2023-03-05T00:41:19;101269.09;;;2.68;100.00
14818;BME280;7500;57.698;11.986;2023-03-05T00:43:47;101261.28;;;2.68;100.00
14818;BME280;7500;57.698;11.986;2023-03-05T00:46:14;101256.91;;;2.68;100.00
14818;BME280;7500;57.698;11.986;2023-03-05T00:48:41;101255.19;;;2.67;100.00
14818;BME280;7500;57.698;11.986;2023-03-05T00:51:08;101249.91;;;2.73;100.00
14818;BME280;7500;57.698;11.986;2023-03-05T00:53:35;101249.84;;;2.78;100.00
14818;BME280;7500;57.698;11.986;2023-03-05T00:56:04;101249.03;;;2.74;100.00
14818;BME280;7500;57.698;11.986;2023-03-05T00:58:31;101249.94;;;2.72;100.00
14818;BME280;7500;57.698;11.986;2023-03-05T01:00:59;101246.44;;;2.71;100.00
14818;BME280;7500;57.698;11.986;2023-03-05T01:03:27;101241.25;;;2.68;100.00
14818;BME280;7500;57.698;11.986;2023-03-05T01:05:56;101247.31;;;2.72;100.00
14818;BME280;7500;57.698;11.986;2023-03-05T01:08:23;101240.34;;;2.72;100.00
14818;BME280;7500;57.698;11.986;2023-03-05T01:10:51;101244.66;;;2.75;100.00
14818;BME280;7500;57.698;11.986;2023-03-05T01:13:20;101236.03;;;2.71;100.00
14818;BME280;7500;57.698;11.986;2023-03-05T01:15:47;101238.66;;;2.70;100.00
14818;BME280;7500;57.698;11.986;2023-03-05T01:18:16;101227.34;;;2.71;100.00
14818;BME280;7500;57.698;11.986;2023-03-05T01:20:43;101229.06;;;2.70;100.00
14818;BME280;7500;57.698;11.986;2023-03-05T01:23:10;101227.38;;;2.66;100.00
14818;BME280;7500;57.698;11.986;2023-03-05T01:25:37;101227.34;;;2.69;100.00
14818;BME280;7500;57.698;11.986;2023-03-05T01:28:04;101225.63;;;2.70;100.00
14818;BME280;7500;57.698;11.986;2023-03-05T01:30:33;101217.88;;;2.64;100.00
14818;BME280;7500;57.698;11.986;2023-03-05T01:33:00;101221.38;;;2.60;100.00
14818;BME280;7500;57.698;11.986;2023-03-05T01:35:28;101223.19;;;2.55;100.00
14818;BME280;7500;57.698;11.986;2023-03-05T01:37:55;101210.13;;;2.58;100.00
14818;BME280;7500;57.698;11.986;2023-03-05T01:40:24;101181.72;;;2.37;100.00
14818;BME280;7500;57.698;11.986;2023-03-05T01:42:57;101214.44;;;2.59;100.00
14818;BME280;7500;57.698;11.986;2023-03-05T01:45:24;101216.16;;;2.63;100.00
14818;BME280;7500;57.698;11.986;2023-03-05T01:47:53;101210.03;;;2.65;100.00
14818;BME280;7500;57.698;11.986;2023-03-05T01:50:22;101207.44;;;2.64;100.00
14818;BME280;7500;57.698;11.986;2023-03-05T01:52:55;101211.81;;;2.60;100.00
14818;BME280;7500;57.698;11.986;2023-03-05T01:55:25;101204.03;;;2.59;100.00
14818;BME280;7500;57.698;11.986;2023-03-05T01:57:55;101207.47;;;2.61;100.00
14818;BME280;7500;57.698;11.986;2023-03-05T02:00:26;101206.63;;;2.59;100.00
14818;BME280;7500;57.698;11.986;2023-03-05T02:02:56;101194.47;;;2.58;100.00
14818;BME280;7500;57.698;11.986;2023-03-05T02:05:29;101191.84;;;2.61;100.00
14818;BME280;7500;57.698;11.986;2023-03-05T02:07:57;101190.09;;;2.61;100.00
14818;BME280;7500;57.698;11.986;2023-03-05T02:10:26;101188.31;;;2.63;100.00
14818;BME280;7500;57.698;11.986;2023-03-05T02:12:58;101193.53;;;2.63;100.00
14818;BME280;7500;57.698;11.986;2023-03-05T02:15:26;101186.69;;;2.55;100.00
14818;BME280;7500;57.698;11.986;2023-03-05T02:17:55;101181.50;;;2.55;100.00
14818;BME280;7500;57.698;11.986;2023-03-05T02:20:24;101177.97;;;2.57;100.00
14818;BME280;7500;57.698;11.986;2023-03-05T02:22:53;101184.94;;;2.55;100.00
14818;BME280;7500;57.698;11.986;2023-03-05T02:25:21;101174.56;;;2.54;100.00
14818;BME280;7500;57.698;11.986;2023-03-05T02:27:53;101182.38;;;2.54;100.00
14818;BME280;7500;57.698;11.986;2023-03-05T02:30:22;101185.00;;;2.51;100.00
14818;BME280;7500;57.698;11.986;2023-03-05T02:32:49;101178.94;;;2.50;100.00
14818;BME280;7500;57.698;11.986;2023-03-05T02:35:16;101181.56;;;2.49;100.00
14818;BME280;7500;57.698;11.986;2023-03-05T02:37:43;101171.13;;;2.49;100.00
14818;BME280;7500;57.698;11.986;2023-03-05T02:40:12;101168.50;;;2.52;100.00
14818;BME280;7500;57.698;11.986;2023-03-05T02:42:40;101171.03;;;2.58;100.00
14818;BME280;7500;57.698;11.986;2023-03-05T02:45:08;101161.47;;;2.55;100.00
14818;BME280;7500;57.698;11.986;2023-03-05T02:47:35;101179.75;;;2.54;100.00
14818;BME280;7500;57.698;11.986;2023-03-05T02:50:03;101167.56;;;2.56;100.00
14818;BME280;7500;57.698;11.986;2023-03-05T02:52:30;101171.84;;;2.61;100.00
14818;BME280;7500;57.698;11.986;2023-03-05T02:54:57;101161.44;;;2.60;100.00
14818;BME280;7500;57.698;11.986;2023-03-05T02:57:26;101164.06;;;2.60;100.00
14818;BME280;7500;57.698;11.986;2023-03-05T02:59:53;101155.41;;;2.56;100.00
14818;BME280;7500;57.698;11.986;2023-03-05T03:02:19;101157.13;;;2.59;100.00
14818;BME280;7500;57.698;11.986;2023-03-05T03:04:47;101149.31;;;2.57;100.00
14818;BME280;7500;57.698;11.986;2023-03-05T03:07:14;101161.47;;;2.57;100.00
14818;BME280;7500;57.698;11.986;2023-03-05T03:09:41;101156.34;;;2.51;100.00
14818;BME280;7500;57.698;11.986;2023-03-05T03:12:09;101154.81;;;2.33;100.00
14818;BME280;7500;57.698;11.986;2023-03-05T03:14:39;101158.22;;;2.41;100.00
14818;BME280;7500;57.698;11.986;2023-03-05T03:17:08;101148.69;;;2.37;100.00
14818;BME280;7500;57.698;11.986;2023-03-05T03:19:36;101139.94;;;2.43;100.00
14818;BME280;7500;57.698;11.986;2023-03-05T03:22:03;101132.97;;;2.45;100.00
14818;BME280;7500;57.698;11.986;2023-03-05T03:24:32;101132.94;;;2.48;99.53
14818;BME280;7500;57.698;11.986;2023-03-05T03:26:59;101135.59;;;2.43;98.41
14818;BME280;7500;57.698;11.986;2023-03-05T03:29:26;101137.41;;;2.38;98.37
14818;BME280;7500;57.698;11.986;2023-03-05T03:31:54;101134.81;;;2.35;98.19
14818;BME280;7500;57.698;11.986;2023-03-05T03:34:22;101133.09;;;2.36;98.09
14818;BME280;7500;57.698;11.986;2023-03-05T03:36:49;101137.59;;;2.22;98.33
14818;BME280;7500;57.698;11.986;2023-03-05T03:39:17;101127.94;;;2.33;98.05
14818;BME280;7500;57.698;11.986;2023-03-05T03:41:46;101133.13;;;2.33;97.75
14818;BME280;7500;57.698;11.986;2023-03-05T03:44:14;101127.00;;;2.37;97.80
14818;BME280;7500;57.698;11.986;2023-03-05T03:46:43;101130.50;;;2.36;98.46
14818;BME280;7500;57.698;11.986;2023-03-05T03:49:14;101126.16;;;2.33;97.46
14818;BME280;7500;57.698;11.986;2023-03-05T03:51:41;101119.19;;;2.35;97.05
14818;BME280;7500;57.698;11.986;2023-03-05T03:54:09;101119.31;;;2.28;97.14
14818;BME280;7500;57.698;11.986;2023-03-05T03:56:36;101117.03;;;2.01;97.83
14818;BME280;7500;57.698;11.986;2023-03-05T03:59:03;101122.84;;;2.21;98.19
14818;BME280;7500;57.698;11.986;2023-03-05T04:01:30;101122.75;;;2.28;98.90
14818;BME280;7500;57.698;11.986;2023-03-05T04:03:57;101114.94;;;2.30;99.18
14818;BME280;7500;57.698;11.986;2023-03-05T04:06:26;101111.53;;;2.25;99.73
14818;BME280;7500;57.698;11.986;2023-03-05T04:08:52;101115.94;;;2.19;100.00
14818;BME280;7500;57.698;11.986;2023-03-05T04:11:20;101116.81;;;2.18;100.00
14818;BME280;7500;57.698;11.986;2023-03-05T04:13:47;101109.88;;;2.18;100.00
14818;BME280;7500;57.698;11.986;2023-03-05T04:16:14;101111.84;;;1.98;100.00
14818;BME280;7500;57.698;11.986;2023-03-05T04:18:42;101110.78;;;2.14;100.00
14818;BME280;7500;57.698;11.986;2023-03-05T04:21:09;101057.41;;;1.79;100.00
14818;BME280;7500;57.698;11.986;2023-03-05T04:23:37;101097.13;;;1.94;100.00
14818;BME280;7500;57.698;11.986;2023-03-05T04:26:04;101014.22;;;1.61;100.00
14818;BME280;7500;57.698;11.986;2023-03-05T04:28:32;101096.91;;;2.12;100.00
14818;BME280;7500;57.698;11.986;2023-03-05T04:30:59;101102.13;;;2.12;99.83
14818;BME280;7500;57.698;11.986;2023-03-05T04:33:26;101091.88;;;2.00;99.53
14818;BME280;7500;57.698;11.986;2023-03-05T04:35:53;101090.00;;;2.10;99.21
14818;BME280;7500;57.698;11.986;2023-03-05T04:38:20;101090.91;;;2.06;99.09
14818;BME280;7500;57.698;11.986;2023-03-05T04:40:49;101103.88;;;2.10;98.81
14818;BME280;7500;57.698;11.986;2023-03-05T04:43:15;101109.13;;;2.09;98.71
14818;BME280;7500;57.698;11.986;2023-03-05T04:45:43;101112.59;;;2.06;98.97
14818;BME280;7500;57.698;11.986;2023-03-05T04:48:10;101100.41;;;2.08;98.05
14818;BME280;7500;57.698;11.986;2023-03-05T04:50:37;101104.06;;;1.94;98.72
14818;BME280;7500;57.698;11.986;2023-03-05T04:53:04;101073.78;;;1.87;97.92
14818;BME280;7500;57.698;11.986;2023-03-05T04:55:32;101100.59;;;1.96;97.91
14818;BME280;7500;57.698;11.986;2023-03-05T04:58:01;101096.31;;;1.88;98.39
14818;BME280;7500;57.698;11.986;2023-03-05T05:00:28;101090.41;;;1.72;97.56
14818;BME280;7500;57.698;11.986;2023-03-05T05:02:56;101103.28;;;1.87;97.79
14818;BME280;7500;57.698;11.986;2023-03-05T05:05:25;101101.56;;;1.86;97.48
14818;BME280;7500;57.698;11.986;2023-03-05T05:07:54;101099.75;;;1.90;97.08
14818;BME280;7500;57.698;11.986;2023-03-05T05:10:25;101102.38;;;1.91;97.31
14818;BME280;7500;57.698;11.986;2023-03-05T05:12:53;101103.25;;;1.90;97.20
14818;BME280;7500;57.698;11.986;2023-03-05T05:15:21;101098.00;;;1.92;97.68
14818;BME280;7500;57.698;11.986;2023-03-05T05:17:48;101107.56;;;1.91;99.04
14818;BME280;7500;57.698;11.986;2023-03-05T05:20:17;101096.31;;;1.89;100.00
14818;BME280;7500;57.698;11.986;2023-03-05T05:22:44;101097.09;;;1.96;100.00
14818;BME280;7500;57.698;11.986;2023-03-05T05:25:11;101095.31;;;2.02;100.00
14818;BME280;7500;57.698;11.986;2023-03-05T05:27:39;101097.88;;;2.04;100.00
14818;BME280;7500;57.698;11.986;2023-03-05T05:30:07;101096.25;;;1.95;100.00
14818;BME280;7500;57.698;11.986;2023-03-05T05:32:36;101095.38;;;1.96;100.00
14818;BME280;7500;57.698;11.986;2023-03-05T05:35:03;101095.38;;;1.96;99.40
14818;BME280;7500;57.698;11.986;2023-03-05T05:37:30;101094.50;;;1.96;98.77
14818;BME280;7500;57.698;11.986;2023-03-05T05:39:57;101086.69;;;1.97;97.62
14818;BME280;7500;57.698;11.986;2023-03-05T05:42:24;101093.63;;;1.98;97.23
14818;BME280;7500;57.698;11.986;2023-03-05T05:44:51;101090.16;;;1.96;97.15
14818;BME280;7500;57.698;11.986;2023-03-05T05:47:20;101086.66;;;2.00;96.65
14818;BME280;7500;57.698;11.986;2023-03-05T05:49:48;101090.09;;;2.02;96.17
14818;BME280;7500;57.698;11.986;2023-03-05T05:52:15;101083.16;;;2.03;96.71
14818;BME280;7500;57.698;11.986;2023-03-05T05:54:42;101084.94;;;1.99;97.19
14818;BME280;7500;57.698;11.986;2023-03-05T05:57:09;101090.09;;;2.02;96.49
14818;BME280;7500;57.698;11.986;2023-03-05T05:59:37;101081.41;;;2.02;96.46
14818;BME280;7500;57.698;11.986;2023-03-05T06:02:04;101084.03;;;2.03;95.74
14818;BME280;7500;57.698;11.986;2023-03-05T06:04:32;101090.09;;;2.01;94.84
14818;BME280;7500;57.698;11.986;2023-03-05T06:07:01;101088.38;;;2.01;94.49
14818;BME280;7500;57.698;11.986;2023-03-05T06:09:28;101080.56;;;2.01;94.41
14818;BME280;7500;57.698;11.986;2023-03-05T06:11:55;101091.88;;;2.00;93.97
14818;BME280;7500;57.698;11.986;2023-03-05T06:14:22;101089.28;;;1.97;93.67
14818;BME280;7500;57.698;11.986;2023-03-05T06:16:49;101082.44;;;1.90;93.41
14818;BME280;7500;57.698;11.986;2023-03-05T06:19:17;101087.59;;;1.93;93.67
14818;BME280;7500;57.698;11.986;2023-03-05T06:21:43;101085.00;;;1.93;93.69
14818;BME280;7500;57.698;11.986;2023-03-05T06:24:12;101091.91;;;1.97;93.80
14818;BME280;7500;57.698;11.986;2023-03-05T06:26:39;101084.13;;;1.94;93.71
14818;BME280;7500;57.698;11.986;2023-03-05T06:29:06;101082.53;;;1.80;94.67
14818;BME280;7500;57.698;11.986;2023-03-05T06:31:34;101084.16;;;1.90;94.28
14818;BME280;7500;57.698;11.986;2023-03-05T06:34:02;101084.22;;;1.85;93.79
14818;BME280;7500;57.698;11.986;2023-03-05T06:36:30;101085.19;;;1.75;94.29
14818;BME280;7500;57.698;11.986;2023-03-05T06:39:02;101080.81;;;1.79;93.98
14818;BME280;7500;57.698;11.986;2023-03-05T06:41:32;101080.66;;;1.92;93.24
14818;BME280;7500;57.698;11.986;2023-03-05T06:44:01;101084.97;;;1.96;92.91
14818;BME280;7500;57.698;11.986;2023-03-05T06:46:30;101084.06;;;1.99;92.65
14818;BME280;7500;57.698;11.986;2023-03-05T06:48:59;101074.53;;;1.95;92.34
14818;BME280;7500;57.698;11.986;2023-03-05T06:51:37;101046.94;;;1.83;92.04
14818;BME280;7500;57.698;11.986;2023-03-05T06:54:06;101074.41;;;2.05;91.85
14818;BME280;7500;57.698;11.986;2023-03-05T06:56:37;101077.28;;;1.84;92.09
14818;BME280;7500;57.698;11.986;2023-03-05T06:59:05;101078.03;;;1.94;92.58
14818;BME280;7500;57.698;11.986;2023-03-05T07:01:32;101080.56;;;2.00;92.08
14818;BME280;7500;57.698;11.986;2023-03-05T07:03:59;101077.03;;;2.05;91.82
14818;BME280;7500;57.698;11.986;2023-03-05T07:06:30;101083.94;;;2.08;91.85
14818;BME280;7500;57.698;11.986;2023-03-05T07:08:58;101071.84;;;2.04;91.65
14818;BME280;7500;57.698;11.986;2023-03-05T07:11:27;101077.00;;;2.10;91.47
14818;BME280;7500;57.698;11.986;2023-03-05T07:14:00;101074.38;;;2.08;91.34
14818;BME280;7500;57.698;11.986;2023-03-05T07:16:29;101072.63;;;2.10;91.08
14818;BME280;7500;57.698;11.986;2023-03-05T07:18:58;101069.13;;;2.11;90.68
14818;BME280;7500;57.698;11.986;2023-03-05T07:21:28;100985.59;;;1.60;90.08
14818;BME280;7500;57.698;11.986;2023-03-05T07:23:58;101072.59;;;2.15;90.13
14818;BME280;7500;57.698;11.986;2023-03-05T07:26:25;101071.69;;;2.17;89.58
14818;BME280;7500;57.698;11.986;2023-03-05T07:28:53;101065.63;;;2.15;89.57
14818;BME280;7500;57.698;11.986;2023-03-05T07:31:23;101076.88;;;2.19;89.63
14818;BME280;7500;57.698;11.986;2023-03-05T07:33:55;101072.56;;;2.16;89.90
14818;BME280;7500;57.698;11.986;2023-03-05T07:36:22;101058.75;;;2.08;89.45
14818;BME280;7500;57.698;11.986;2023-03-05T07:38:49;101054.41;;;2.10;89.54
14818;BME280;7500;57.698;11.986;2023-03-05T07:41:17;101075.94;;;2.24;88.65
14818;BME280;7500;57.698;11.986;2023-03-05T07:43:46;101083.72;;;2.27;88.29
14818;BME280;7500;57.698;11.986;2023-03-05T07:46:15;101065.50;;;2.24;87.39
14818;BME280;7500;57.698;11.986;2023-03-05T07:48:44;101074.91;;;2.35;88.05
14818;BME280;7500;57.698;11.986;2023-03-05T07:51:12;101068.78;;;2.38;87.89
14818;BME280;7500;57.698;11.986;2023-03-05T07:53:41;101078.31;;;2.40;85.70
14818;BME280;7500;57.698;11.986;2023-03-05T07:56:09;101071.34;;;2.42;84.47
14818;BME280;7500;57.698;11.986;2023-03-05T07:58:36;101064.38;;;2.44;84.46
14818;BME280;7500;57.698;11.986;2023-03-05T08:01:03;101059.34;;;2.29;84.51
14818;BME280;7500;57.698;11.986;2023-03-05T08:03:37;101066.06;;;2.47;84.11
14818;BME280;7500;57.698;11.986;2023-03-05T08:06:07;101072.22;;;2.40;84.32
14818;BME280;7500;57.698;11.986;2023-03-05T08:08:34;101063.38;;;2.53;83.81
14818;BME280;7500;57.698;11.986;2023-03-05T08:11:03;101059.84;;;2.55;82.58
14818;BME280;7500;57.698;11.986;2023-03-05T08:13:30;101052.00;;;2.60;82.55
14818;BME280;7500;57.698;11.986;2023-03-05T08:15:57;101048.50;;;2.61;82.02
14818;BME280;7500;57.698;11.986;2023-03-05T08:18:24;101066.66;;;2.67;81.54
14818;BME280;7500;57.698;11.986;2023-03-05T08:20:51;101054.44;;;2.72;80.61
14818;BME280;7500;57.698;11.986;2023-03-05T08:23:20;101042.22;;;2.74;81.74
14818;BME280;7500;57.698;11.986;2023-03-05T08:25:47;101044.72;;;2.80;81.25
14818;BME280;7500;57.698;11.986;2023-03-05T08:28:15;101045.50;;;2.86;81.06
14818;BME280;7500;57.698;11.986;2023-03-05T08:30:44;101026.44;;;2.84;81.11
14818;BME280;7500;57.698;11.986;2023-03-05T08:33:11;101046.22;;;2.96;79.78
14818;BME280;7500;57.698;11.986;2023-03-05T08:35:38;101026.25;;;2.95;78.95
14818;BME280;7500;57.698;11.986;2023-03-05T08:38:06;101007.50;;;2.72;76.63
14818;BME280;7500;57.698;11.986;2023-03-05T08:40:34;101040.16;;;2.94;76.05
14818;BME280;7500;57.698;11.986;2023-03-05T08:43:01;101028.91;;;2.92;75.39
14818;BME280;7500;57.698;11.986;2023-03-05T08:45:30;101021.78;;;3.01;76.36
14818;BME280;7500;57.698;11.986;2023-03-05T08:47:57;101026.09;;;3.04;75.89
14818;BME280;7500;57.698;11.986;2023-03-05T08:50:24;101019.91;;;3.09;75.71
14818;BME280;7500;57.698;11.986;2023-03-05T08:52:52;101012.03;;;3.12;74.87
14818;BME280;7500;57.698;11.986;2023-03-05T08:55:21;101013.69;;;3.18;75.49
14818;BME280;7500;57.698;11.986;2023-03-05T08:57:49;101008.47;;;3.18;75.30
14818;BME280;7500;57.698;11.986;2023-03-05T09:00:17;101003.22;;;3.19;75.04
14818;BME280;7500;57.698;11.986;2023-03-05T09:02:44;101005.00;;;3.16;73.88
14818;BME280;7500;57.698;11.986;2023-03-05T09:05:11;100999.56;;;3.29;74.92
14818;BME280;7500;57.698;11.986;2023-03-05T09:07:38;100995.09;;;3.35;75.23
14818;BME280;7500;57.698;11.986;2023-03-05T09:10:07;100981.91;;;3.41;76.35
14818;BME280;7500;57.698;11.986;2023-03-05T09:12:36;100982.78;;;3.42;76.04
14818;BME280;7500;57.698;11.986;2023-03-05T09:15:07;100981.81;;;3.47;75.91
14818;BME280;7500;57.698;11.986;2023-03-05T09:17:37;100976.47;;;3.55;77.35
14818;BME280;7500;57.698;11.986;2023-03-05T09:20:10;100983.34;;;3.57;75.08
14818;BME280;7500;57.698;11.986;2023-03-05T09:22:38;100886.91;;;3.08;75.41
14818;BME280;7500;57.698;11.986;2023-03-05T09:25:10;100976.25;;;3.64;75.94
14818;BME280;7500;57.698;11.986;2023-03-05T09:27:38;100972.81;;;3.63;73.66
14818;BME280;7500;57.698;11.986;2023-03-05T09:30:08;100966.72;;;3.63;73.93
14818;BME280;7500;57.698;11.986;2023-03-05T09:32:36;100967.53;;;3.66;73.05
14818;BME280;7500;57.698;11.986;2023-03-05T09:35:03;100966.47;;;3.75;74.48
14818;BME280;7500;57.698;11.986;2023-03-05T09:37:31;100958.59;;;3.78;75.17
14818;BME280;7500;57.698;11.986;2023-03-05T09:39:59;100950.59;;;3.85;75.11
14818;BME280;7500;57.698;11.986;2023-03-05T09:42:33;100951.34;;;3.90;75.37
14818;BME280;7500;57.698;11.986;2023-03-05T09:45:16;100959.13;;;3.93;75.65
14818;BME280;7500;57.698;11.986;2023-03-05T09:47:52;100955.50;;;4.00;77.64
14818;BME280;7500;57.698;11.986;2023-03-05T09:50:36;100957.03;;;4.09;78.62
14818;BME280;7500;57.698;11.986;2023-03-05T09:53:11;100956.25;;;4.05;80.27
14818;BME280;7500;57.698;11.986;2023-03-05T09:55:42;100946.59;;;4.09;81.88
14818;BME280;7500;57.698;11.986;2023-03-05T09:58:13;100949.00;;;4.18;82.42
14818;BME280;7500;57.698;11.986;2023-03-05T10:00:43;100946.34;;;4.19;81.79
14818;BME280;7500;57.698;11.986;2023-03-05T10:03:15;100935.88;;;4.21;81.92
14818;BME280;7500;57.698;11.986;2023-03-05T10:05:55;100940.16;;;4.23;82.82
14818;BME280;7500;57.698;11.986;2023-03-05T10:08:30;100940.03;;;4.29;84.39
14818;BME280;7500;57.698;11.986;2023-03-05T10:11:01;100939.88;;;4.35;85.56
14818;BME280;7500;57.698;11.986;2023-03-05T10:13:37;100939.00;;;4.35;87.12
14818;BME280;7500;57.698;11.986;2023-03-05T10:16:27;100939.75;;;4.41;88.48
14818;BME280;7500;57.698;11.986;2023-03-05T10:19:06;100931.75;;;4.47;88.29
14818;BME280;7500;57.698;11.986;2023-03-05T10:21:41;100924.16;;;4.37;88.78
14818;BME280;7500;57.698;11.986;2023-03-05T10:24:16;100926.50;;;4.47;87.74
14818;BME280;7500;57.698;11.986;2023-03-05T10:26:57;100924.72;;;4.50;88.54
14818;BME280;7500;57.698;11.986;2023-03-05T10:29:44;100913.34;;;4.51;89.19
14818;BME280;7500;57.698;11.986;2023-03-05T10:32:21;100921.94;;;4.56;89.46
14818;BME280;7500;57.698;11.986;2023-03-05T10:37:57;100915.00;;;4.55;91.56
14818;BME280;7500;57.698;11.986;2023-03-05T10:40:29;100914.88;;;4.60;92.35
14818;BME280;7500;57.698;11.986;2023-03-05T10:43:06;100919.22;;;4.61;93.58
14818;BME280;7500;57.698;11.986;2023-03-05T10:45:40;100913.09;;;4.62;95.77
14818;BME280;7500;57.698;11.986;2023-03-05T10:48:25;100913.09;;;4.62;96.00
14818;BME280;7500;57.698;11.986;2023-03-05T10:50:58;100906.91;;;4.64;96.71
14818;BME280;7500;57.698;11.986;2023-03-05T10:53:29;100906.22;;;4.58;96.75
14818;BME280;7500;57.698;11.986;2023-03-05T10:56:00;100902.81;;;4.54;95.56
14818;BME280;7500;57.698;11.986;2023-03-05T10:58:28;100903.44;;;4.64;95.87
14818;BME280;7500;57.698;11.986;2023-03-05T11:01:00;100911.38;;;4.59;96.04
14818;BME280;7500;57.698;11.986;2023-03-05T11:03:49;100826.13;;;4.21;95.24
14818;BME280;7500;57.698;11.986;2023-03-05T11:06:27;100898.25;;;4.62;93.12
14818;BME280;7500;57.698;11.986;2023-03-05T11:08:54;100902.50;;;4.66;93.31
14818;BME280;7500;57.698;11.986;2023-03-05T11:11:22;100901.53;;;4.70;93.39
14818;BME280;7500;57.698;11.986;2023-03-05T11:13:52;100898.97;;;4.69;92.63
14818;BME280;7500;57.698;11.986;2023-03-05T11:16:22;100890.31;;;4.67;93.01
14818;BME280;7500;57.698;11.986;2023-03-05T11:19:14;100887.72;;;4.65;94.28
14818;BME280;7500;57.698;11.986;2023-03-05T11:21:42;100879.84;;;4.67;96.60
14818;BME280;7500;57.698;11.986;2023-03-05T11:24:11;100892.94;;;4.65;99.06
14818;BME280;7500;57.698;11.986;2023-03-05T11:26:46;100889.41;;;4.68;100.00
14818;BME280;7500;57.698;11.986;2023-03-05T11:29:24;100891.91;;;4.72;99.43
14818;BME280;7500;57.698;11.986;2023-03-05T11:31:52;100890.22;;;4.70;100.00
14818;BME280;7500;57.698;11.986;2023-03-05T11:34:29;100888.44;;;4.72;100.00
14818;BME280;7500;57.698;11.986;2023-03-05T11:37:01;100883.16;;;4.73;99.93
14818;BME280;7500;57.698;11.986;2023-03-05T11:39:31;100838.72;;;4.40;100.00
14818;BME280;7500;57.698;11.986;2023-03-05T11:42:02;100877.78;;;4.79;99.85
14818;BME280;7500;57.698;11.986;2023-03-05T11:44:33;100875.31;;;4.73;98.73
14818;BME280;7500;57.698;11.986;2023-03-05T11:47:16;100868.97;;;4.82;100.00
14818;BME280;7500;57.698;11.986;2023-03-05T11:49:49;100850.81;;;4.77;100.00
14818;BME280;7500;57.698;11.986;2023-03-05T11:52:22;100867.19;;;4.84;99.96
14818;BME280;7500;57.698;11.986;2023-03-05T11:54:55;100859.38;;;4.82;100.00
14818;BME280;7500;57.698;11.986;2023-03-05T11:57:26;100843.63;;;4.85;99.31
14818;BME280;7500;57.698;11.986;2023-03-05T11:59:55;100847.91;;;4.88;98.80
14818;BME280;7500;57.698;11.986;2023-03-05T12:02:25;100860.13;;;4.87;98.46
14818;BME280;7500;57.698;11.986;2023-03-05T12:04:54;100846.19;;;4.87;98.50
14818;BME280;7500;57.698;11.986;2023-03-05T12:07:31;100854.09;;;4.84;98.06
14818;BME280;7500;57.698;11.986;2023-03-05T12:10:00;100811.94;;;4.64;97.14
14818;BME280;7500;57.698;11.986;2023-03-05T12:12:33;100841.59;;;4.95;96.98
14818;BME280;7500;57.698;11.986;2023-03-05T12:15:20;100828.53;;;4.93;96.54
14818;BME280;7500;57.698;11.986;2023-03-05T12:17:57;100835.19;;;5.06;96.54
14818;BME280;7500;57.698;11.986;2023-03-05T12:20:35;100820.28;;;5.08;92.25
14818;BME280;7500;57.698;11.986;2023-03-05T12:23:11;100821.34;;;5.03;86.39
14818;BME280;7500;57.698;11.986;2023-03-05T12:25:45;100817.69;;;5.08;87.15
14818;BME280;7500;57.698;11.986;2023-03-05T12:28:13;100820.88;;;5.18;85.95
14818;BME280;7500;57.698;11.986;2023-03-05T12:31:01;100816.31;;;5.26;86.08
14818;BME280;7500;57.698;11.986;2023-03-05T12:33:32;100814.50;;;5.28;85.85
14818;BME280;7500;57.698;11.986;2023-03-05T12:39:01;100813.50;;;5.32;81.63
14818;BME280;7500;57.698;11.986;2023-03-05T12:41:49;100804.94;;;5.27;81.66
14818;BME280;7500;57.698;11.986;2023-03-05T12:44:20;100807.19;;;5.39;84.26
14818;BME280;7500;57.698;11.986;2023-03-05T12:47:15;100796.72;;;5.67;82.29
14818;BME280;7500;57.698;11.986;2023-03-05T12:49:47;100768.16;;;5.60;81.14
14818;BME280;7500;57.698;11.986;2023-03-05T12:52:22;100794.22;;;5.92;81.03
14818;BME280;7500;57.698;11.986;2023-03-05T12:54:59;100793.97;;;5.99;82.47
14818;BME280;7500;57.698;11.986;2023-03-05T12:57:29;100798.34;;;5.99;82.66
14818;BME280;7500;57.698;11.986;2023-03-05T12:59:59;100796.50;;;6.02;84.98
14818;BME280;7500;57.698;11.986;2023-03-05T13:02:34;100797.94;;;6.11;86.12
14818;BME280;7500;57.698;11.986;2023-03-05T13:05:04;100785.47;;;6.19;86.33
14818;BME280;7500;57.698;11.986;2023-03-05T13:07:33;100784.22;;;6.29;88.36
14818;BME280;7500;57.698;11.986;2023-03-05T13:10:01;100786.81;;;6.30;84.44
14818;BME280;7500;57.698;11.986;2023-03-05T13:12:29;100774.44;;;6.34;86.07
14818;BME280;7500;57.698;11.986;2023-03-05T13:14:59;100789.06;;;6.41;84.69
14818;BME280;7500;57.698;11.986;2023-03-05T13:17:33;100782.75;;;6.46;83.51